sensor_id;sensor_type;location;lat;lon;timestamp;P1;durP1;ratioP1;P2;durP2;ratioP2
32082;SDS011;18597;48.328;7.932;2022-07-10T00:01:27;4.80;;;4.10;;
32082;SDS011;18597;48.328;7.932;2022-07-10T00:03:53;5.50;;;5.00;;
32082;SDS011;18597;48.328;7.932;2022-07-10T00:06:19;5.87;;;4.73;;
32082;SDS011;18597;48.328;7.932;2022-07-10T00:08:45;5.30;;;5.00;;
32082;SDS011;18597;48.328;7.932;2022-07-10T00:11:11;5.17;;;4.90;;
32082;SDS011;18597;48.328;7.932;2022-07-10T00:13:37;9.60;;;5.17;;
32082;SDS011;18597;48.328;7.932;2022-07-10T00:16:03;5.00;;;4.60;;
32082;SDS011;18597;48.328;7.932;2022-07-10T00:18:30;5.00;;;4.70;;
32082;SDS011;18597;48.328;7.932;2022-07-10T00:20:56;6.20;;;5.67;;
32082;SDS011;18597;48.328;7.932;2022-07-10T00:23:21;5.70;;;5.30;;
32082;SDS011;18597;48.328;7.932;2022-07-10T00:25:47;5.80;;;5.50;;
32082;SDS011;18597;48.328;7.932;2022-07-10T00:28:14;5.20;;;4.80;;
32082;SDS011;18597;48.328;7.932;2022-07-10T00:30:40;9.13;;;4.80;;
32082;SDS011;18597;48.328;7.932;2022-07-10T00:33:06;6.33;;;4.20;;
32082;SDS011;18597;48.328;7.932;2022-07-10T00:35:32;4.50;;;4.40;;
32082;SDS011;18597;48.328;7.932;2022-07-10T00:37:58;6.20;;;5.00;;
32082;SDS011;18597;48.328;7.932;2022-07-10T00:40:24;7.67;;;4.40;;
32082;SDS011;18597;48.328;7.932;2022-07-10T00:42:50;5.20;;;4.80;;
32082;SDS011;18597;48.328;7.932;2022-07-10T00:45:16;5.23;;;4.83;;
32082;SDS011;18597;48.328;7.932;2022-07-10T00:47:42;4.60;;;4.23;;
32082;SDS011;18597;48.328;7.932;2022-07-10T00:50:08;4.80;;;4.60;;
32082;SDS011;18597;48.328;7.932;2022-07-10T00:52:35;4.97;;;4.60;;
32082;SDS011;18597;48.328;7.932;2022-07-10T00:55:04;4.30;;;4.10;;
32082;SDS011;18597;48.328;7.932;2022-07-10T00:57:31;6.10;;;4.87;;
32082;SDS011;18597;48.328;7.932;2022-07-10T00:59:58;3.70;;;3.60;;
32082;SDS011;18597;48.328;7.932;2022-07-10T01:02:24;4.80;;;4.50;;
32082;SDS011;18597;48.328;7.932;2022-07-10T01:04:50;4.10;;;3.80;;
32082;SDS011;18597;48.328;7.932;2022-07-10T01:07:16;4.47;;;4.23;;
32082;SDS011;18597;48.328;7.932;2022-07-10T01:09:42;3.90;;;3.70;;
32082;SDS011;18597;48.328;7.932;2022-07-10T01:12:09;4.37;;;4.17;;
32082;SDS011;18597;48.328;7.932;2022-07-10T01:14:37;6.10;;;4.87;;
32082;SDS011;18597;48.328;7.932;2022-07-10T01:17:05;5.20;;;4.70;;
32082;SDS011;18597;48.328;7.932;2022-07-10T01:19:33;4.10;;;3.90;;
32082;SDS011;18597;48.328;7.932;2022-07-10T01:21:59;5.90;;;5.43;;
32082;SDS011;18597;48.328;7.932;2022-07-10T01:24:26;5.53;;;5.03;;
32082;SDS011;18597;48.328;7.932;2022-07-10T01:26:52;5.30;;;5.00;;
32082;SDS011;18597;48.328;7.932;2022-07-10T01:29:18;4.97;;;4.63;;
32082;SDS011;18597;48.328;7.932;2022-07-10T01:31:46;4.97;;;4.67;;
32082;SDS011;18597;48.328;7.932;2022-07-10T01:34:12;4.73;;;4.43;;
32082;SDS011;18597;48.328;7.932;2022-07-10T01:36:38;5.57;;;5.17;;
32082;SDS011;18597;48.328;7.932;2022-07-10T01:39:05;5.10;;;4.80;;
32082;SDS011;18597;48.328;7.932;2022-07-10T01:41:31;4.00;;;3.80;;
32082;SDS011;18597;48.328;7.932;2022-07-10T01:43:58;3.80;;;3.70;;
32082;SDS011;18597;48.328;7.932;2022-07-10T01:46:24;4.43;;;4.03;;
32082;SDS011;18597;48.328;7.932;2022-07-10T01:48:50;7.10;;;3.93;;
32082;SDS011;18597;48.328;7.932;2022-07-10T01:51:17;4.07;;;3.83;;
32082;SDS011;18597;48.328;7.932;2022-07-10T01:53:43;7.20;;;4.30;;
32082;SDS011;18597;48.328;7.932;2022-07-10T01:56:10;4.70;;;4.50;;
32082;SDS011;18597;48.328;7.932;2022-07-10T01:58:38;4.93;;;4.33;;
32082;SDS011;18597;48.328;7.932;2022-07-10T02:01:05;5.20;;;4.40;;
32082;SDS011;18597;48.328;7.932;2022-07-10T02:03:32;3.43;;;3.33;;
32082;SDS011;18597;48.328;7.932;2022-07-10T02:06:18;4.53;;;4.10;;
32082;SDS011;18597;48.328;7.932;2022-07-10T02:08:44;3.73;;;3.63;;
32082;SDS011;18597;48.328;7.932;2022-07-10T02:11:10;3.90;;;3.80;;
32082;SDS011;18597;48.328;7.932;2022-07-10T02:13:37;4.50;;;3.67;;
32082;SDS011;18597;48.328;7.932;2022-07-10T02:16:03;4.63;;;4.37;;
32082;SDS011;18597;48.328;7.932;2022-07-10T02:18:30;4.50;;;4.00;;
32082;SDS011;18597;48.328;7.932;2022-07-10T02:20:57;3.70;;;3.60;;
32082;SDS011;18597;48.328;7.932;2022-07-10T02:23:23;4.20;;;4.00;;
32082;SDS011;18597;48.328;7.932;2022-07-10T02:25:48;6.70;;;3.80;;
32082;SDS011;18597;48.328;7.932;2022-07-10T02:28:15;4.10;;;4.00;;
32082;SDS011;18597;48.328;7.932;2022-07-10T02:30:41;6.17;;;4.20;;
32082;SDS011;18597;48.328;7.932;2022-07-10T02:33:07;4.67;;;4.20;;
32082;SDS011;18597;48.328;7.932;2022-07-10T02:35:33;3.70;;;3.60;;
32082;SDS011;18597;48.328;7.932;2022-07-10T02:37:59;13.33;;;3.20;;
32082;SDS011;18597;48.328;7.932;2022-07-10T02:40:25;3.70;;;3.40;;
32082;SDS011;18597;48.328;7.932;2022-07-10T02:42:51;5.03;;;4.50;;
32082;SDS011;18597;48.328;7.932;2022-07-10T02:45:17;4.47;;;4.03;;
32082;SDS011;18597;48.328;7.932;2022-07-10T02:47:42;4.10;;;3.97;;
32082;SDS011;18597;48.328;7.932;2022-07-10T02:50:08;4.50;;;4.30;;
32082;SDS011;18597;48.328;7.932;2022-07-10T02:52:34;5.70;;;4.10;;
32082;SDS011;18597;48.328;7.932;2022-07-10T02:55:00;3.60;;;3.40;;
32082;SDS011;18597;48.328;7.932;2022-07-10T02:57:26;5.93;;;4.20;;
32082;SDS011;18597;48.328;7.932;2022-07-10T02:59:53;5.43;;;5.00;;
32082;SDS011;18597;48.328;7.932;2022-07-10T03:02:19;5.27;;;4.87;;
32082;SDS011;18597;48.328;7.932;2022-07-10T03:04:45;7.27;;;3.87;;
32082;SDS011;18597;48.328;7.932;2022-07-10T03:07:10;6.20;;;5.63;;
32082;SDS011;18597;48.328;7.932;2022-07-10T03:09:36;7.70;;;6.10;;
32082;SDS011;18597;48.328;7.932;2022-07-10T03:12:02;6.27;;;5.83;;
32082;SDS011;18597;48.328;7.932;2022-07-10T03:14:28;7.43;;;6.83;;
32082;SDS011;18597;48.328;7.932;2022-07-10T03:16:54;8.53;;;7.77;;
32082;SDS011;18597;48.328;7.932;2022-07-10T03:19:20;10.70;;;8.50;;
32082;SDS011;18597;48.328;7.932;2022-07-10T03:21:46;11.80;;;7.30;;
32082;SDS011;18597;48.328;7.932;2022-07-10T03:24:12;7.30;;;6.70;;
32082;SDS011;18597;48.328;7.932;2022-07-10T03:26:38;7.80;;;7.10;;
32082;SDS011;18597;48.328;7.932;2022-07-10T03:29:04;7.73;;;7.00;;
32082;SDS011;18597;48.328;7.932;2022-07-10T03:31:29;7.20;;;6.47;;
32082;SDS011;18597;48.328;7.932;2022-07-10T03:33:55;6.77;;;6.37;;
32082;SDS011;18597;48.328;7.932;2022-07-10T03:36:21;6.03;;;5.53;;
32082;SDS011;18597;48.328;7.932;2022-07-10T03:38:47;5.80;;;5.30;;
32082;SDS011;18597;48.328;7.932;2022-07-10T03:41:13;5.67;;;5.33;;
32082;SDS011;18597;48.328;7.932;2022-07-10T03:43:39;4.83;;;4.63;;
32082;SDS011;18597;48.328;7.932;2022-07-10T03:46:05;5.40;;;5.20;;
32082;SDS011;18597;48.328;7.932;2022-07-10T03:48:31;6.13;;;5.50;;
32082;SDS011;18597;48.328;7.932;2022-07-10T03:50:58;9.93;;;5.83;;
32082;SDS011;18597;48.328;7.932;2022-07-10T03:53:24;5.70;;;5.20;;
32082;SDS011;18597;48.328;7.932;2022-07-10T03:55:50;6.27;;;5.07;;
32082;SDS011;18597;48.328;7.932;2022-07-10T03:58:16;4.30;;;4.00;;
32082;SDS011;18597;48.328;7.932;2022-07-10T04:00:42;4.60;;;4.20;;
32082;SDS011;18597;48.328;7.932;2022-07-10T04:03:08;4.40;;;4.10;;
32082;SDS011;18597;48.328;7.932;2022-07-10T04:05:34;5.90;;;4.00;;
32082;SDS011;18597;48.328;7.932;2022-07-10T04:08:02;9.00;;;4.10;;
32082;SDS011;18597;48.328;7.932;2022-07-10T04:10:29;4.23;;;4.00;;
32082;SDS011;18597;48.328;7.932;2022-07-10T04:12:56;4.90;;;4.40;;
32082;SDS011;18597;48.328;7.932;2022-07-10T04:15:23;4.20;;;3.80;;
32082;SDS011;18597;48.328;7.932;2022-07-10T04:17:49;9.73;;;3.90;;
32082;SDS011;18597;48.328;7.932;2022-07-10T04:20:16;4.67;;;3.67;;
32082;SDS011;18597;48.328;7.932;2022-07-10T04:22:43;7.80;;;4.10;;
32082;SDS011;18597;48.328;7.932;2022-07-10T04:25:09;4.33;;;4.03;;
32082;SDS011;18597;48.328;7.932;2022-07-10T04:27:36;3.70;;;3.50;;
32082;SDS011;18597;48.328;7.932;2022-07-10T04:30:03;3.50;;;3.30;;
32082;SDS011;18597;48.328;7.932;2022-07-10T04:32:29;2.80;;;2.80;;
32082;SDS011;18597;48.328;7.932;2022-07-10T04:34:56;7.10;;;3.30;;
32082;SDS011;18597;48.328;7.932;2022-07-10T04:37:23;4.40;;;2.93;;
32082;SDS011;18597;48.328;7.932;2022-07-10T04:39:49;3.80;;;2.60;;
32082;SDS011;18597;48.328;7.932;2022-07-10T04:42:15;4.10;;;3.80;;
32082;SDS011;18597;48.328;7.932;2022-07-10T04:44:41;11.40;;;3.10;;
32082;SDS011;18597;48.328;7.932;2022-07-10T04:47:07;3.30;;;3.00;;
32082;SDS011;18597;48.328;7.932;2022-07-10T04:49:33;7.53;;;3.93;;
32082;SDS011;18597;48.328;7.932;2022-07-10T04:51:59;4.87;;;2.30;;
32082;SDS011;18597;48.328;7.932;2022-07-10T17:03:30;1.70;;;0.97;;
32082;SDS011;18597;48.328;7.932;2022-07-10T17:05:56;1.70;;;1.03;;
32082;SDS011;18597;48.328;7.932;2022-07-10T17:08:22;1.97;;;0.70;;
32082;SDS011;18597;48.328;7.932;2022-07-10T17:10:48;2.83;;;1.33;;
32082;SDS011;18597;48.328;7.932;2022-07-10T17:13:14;3.23;;;0.70;;
32082;SDS011;18597;48.328;7.932;2022-07-10T17:15:39;4.47;;;1.00;;
32082;SDS011;18597;48.328;7.932;2022-07-10T17:18:06;3.03;;;1.10;;
32082;SDS011;18597;48.328;7.932;2022-07-10T17:20:32;2.10;;;1.60;;
32082;SDS011;18597;48.328;7.932;2022-07-10T17:22:58;2.00;;;1.13;;
32082;SDS011;18597;48.328;7.932;2022-07-10T17:25:25;1.10;;;1.00;;
32082;SDS011;18597;48.328;7.932;2022-07-10T17:27:51;1.90;;;1.00;;
32082;SDS011;18597;48.328;7.932;2022-07-10T17:30:17;1.03;;;1.03;;
32082;SDS011;18597;48.328;7.932;2022-07-10T17:32:45;0.77;;;0.77;;
32082;SDS011;18597;48.328;7.932;2022-07-10T17:35:11;2.37;;;0.80;;
32082;SDS011;18597;48.328;7.932;2022-07-10T17:37:38;2.90;;;1.10;;
32082;SDS011;18597;48.328;7.932;2022-07-10T17:40:04;1.20;;;1.10;;
32082;SDS011;18597;48.328;7.932;2022-07-10T17:42:31;11.10;;;1.07;;
32082;SDS011;18597;48.328;7.932;2022-07-10T17:44:57;4.20;;;1.17;;
32082;SDS011;18597;48.328;7.932;2022-07-10T17:47:23;6.00;;;2.60;;
32082;SDS011;18597;48.328;7.932;2022-07-10T17:49:53;2.93;;;1.97;;
32082;SDS011;18597;48.328;7.932;2022-07-10T17:52:19;2.27;;;1.07;;
32082;SDS011;18597;48.328;7.932;2022-07-10T17:54:46;2.33;;;0.70;;
32082;SDS011;18597;48.328;7.932;2022-07-10T17:57:13;1.00;;;0.87;;
32082;SDS011;18597;48.328;7.932;2022-07-10T17:59:38;2.77;;;1.00;;
32082;SDS011;18597;48.328;7.932;2022-07-10T18:02:04;1.13;;;0.80;;
32082;SDS011;18597;48.328;7.932;2022-07-10T18:04:31;5.37;;;2.93;;
32082;SDS011;18597;48.328;7.932;2022-07-10T18:06:57;4.43;;;1.20;;
32082;SDS011;18597;48.328;7.932;2022-07-10T18:09:24;2.40;;;1.30;;
32082;SDS011;18597;48.328;7.932;2022-07-10T18:11:49;1.03;;;0.73;;
32082;SDS011;18597;48.328;7.932;2022-07-10T18:14:15;1.80;;;1.03;;
32082;SDS011;18597;48.328;7.932;2022-07-10T18:16:41;3.27;;;1.00;;
32082;SDS011;18597;48.328;7.932;2022-07-10T18:19:08;1.60;;;1.10;;
32082;SDS011;18597;48.328;7.932;2022-07-10T18:21:35;8.83;;;2.20;;
32082;SDS011;18597;48.328;7.932;2022-07-10T18:24:01;1.50;;;1.20;;
32082;SDS011;18597;48.328;7.932;2022-07-10T18:26:28;1.20;;;1.03;;
32082;SDS011;18597;48.328;7.932;2022-07-10T18:28:56;1.50;;;0.90;;
32082;SDS011;18597;48.328;7.932;2022-07-10T18:31:24;1.10;;;1.00;;
32082;SDS011;18597;48.328;7.932;2022-07-10T18:33:51;1.10;;;1.00;;
32082;SDS011;18597;48.328;7.932;2022-07-10T18:36:37;1.23;;;1.13;;
32082;SDS011;18597;48.328;7.932;2022-07-10T18:39:05;8.17;;;1.00;;
32082;SDS011;18597;48.328;7.932;2022-07-10T18:41:33;1.60;;;1.50;;
32082;SDS011;18597;48.328;7.932;2022-07-10T18:43:59;2.13;;;1.20;;
32082;SDS011;18597;48.328;7.932;2022-07-10T18:46:27;5.00;;;1.53;;
32082;SDS011;18597;48.328;7.932;2022-07-10T18:48:53;3.63;;;1.63;;
32082;SDS011;18597;48.328;7.932;2022-07-10T18:51:20;2.03;;;1.23;;
32082;SDS011;18597;48.328;7.932;2022-07-10T18:53:46;5.50;;;2.00;;
32082;SDS011;18597;48.328;7.932;2022-07-10T18:56:12;1.63;;;1.57;;
32082;SDS011;18597;48.328;7.932;2022-07-10T18:58:39;1.43;;;1.33;;
32082;SDS011;18597;48.328;7.932;2022-07-10T19:01:05;1.47;;;1.30;;
32082;SDS011;18597;48.328;7.932;2022-07-10T19:03:31;8.43;;;4.43;;
32082;SDS011;18597;48.328;7.932;2022-07-10T19:05:57;6.10;;;1.50;;
32082;SDS011;18597;48.328;7.932;2022-07-10T19:08:23;1.80;;;1.70;;
32082;SDS011;18597;48.328;7.932;2022-07-10T19:10:49;3.17;;;1.90;;
32082;SDS011;18597;48.328;7.932;2022-07-10T19:13:15;6.87;;;3.97;;
32082;SDS011;18597;48.328;7.932;2022-07-10T19:15:41;8.07;;;4.60;;
32082;SDS011;18597;48.328;7.932;2022-07-10T19:18:06;5.40;;;2.07;;
32082;SDS011;18597;48.328;7.932;2022-07-10T19:20:33;2.53;;;2.27;;
32082;SDS011;18597;48.328;7.932;2022-07-10T19:22:59;9.47;;;3.67;;
32082;SDS011;18597;48.328;7.932;2022-07-10T19:25:25;2.60;;;1.50;;
32082;SDS011;18597;48.328;7.932;2022-07-10T19:27:53;1.50;;;1.07;;
32082;SDS011;18597;48.328;7.932;2022-07-10T19:30:19;3.10;;;2.30;;
32082;SDS011;18597;48.328;7.932;2022-07-10T19:32:45;9.80;;;3.33;;
32082;SDS011;18597;48.328;7.932;2022-07-10T19:35:11;1.70;;;1.60;;
32082;SDS011;18597;48.328;7.932;2022-07-10T19:37:38;3.40;;;1.83;;
32082;SDS011;18597;48.328;7.932;2022-07-10T19:40:04;1.80;;;1.70;;
32082;SDS011;18597;48.328;7.932;2022-07-10T19:42:31;6.63;;;1.93;;
32082;SDS011;18597;48.328;7.932;2022-07-10T19:44:58;5.13;;;2.00;;
32082;SDS011;18597;48.328;7.932;2022-07-10T19:47:25;3.73;;;1.90;;
32082;SDS011;18597;48.328;7.932;2022-07-10T19:49:52;3.87;;;2.10;;
32082;SDS011;18597;48.328;7.932;2022-07-10T19:52:19;6.63;;;2.37;;
32082;SDS011;18597;48.328;7.932;2022-07-10T19:54:45;7.10;;;3.50;;
32082;SDS011;18597;48.328;7.932;2022-07-10T19:57:11;3.03;;;1.83;;
32082;SDS011;18597;48.328;7.932;2022-07-10T19:59:37;9.10;;;6.70;;
32082;SDS011;18597;48.328;7.932;2022-07-10T20:02:03;9.23;;;6.03;;
32082;SDS011;18597;48.328;7.932;2022-07-10T20:04:29;30.70;;;14.77;;
32082;SDS011;18597;48.328;7.932;2022-07-10T20:06:56;10.20;;;6.00;;
32082;SDS011;18597;48.328;7.932;2022-07-10T20:09:23;11.90;;;7.70;;
32082;SDS011;18597;48.328;7.932;2022-07-10T20:11:49;4.63;;;3.47;;
32082;SDS011;18597;48.328;7.932;2022-07-10T20:14:15;3.93;;;2.50;;
32082;SDS011;18597;48.328;7.932;2022-07-10T20:16:42;3.17;;;1.90;;
32082;SDS011;18597;48.328;7.932;2022-07-10T20:19:11;4.70;;;3.40;;
32082;SDS011;18597;48.328;7.932;2022-07-10T20:21:39;2.90;;;2.13;;
32082;SDS011;18597;48.328;7.932;2022-07-10T20:24:06;2.50;;;1.80;;
32082;SDS011;18597;48.328;7.932;2022-07-10T20:26:31;1.90;;;1.80;;
32082;SDS011;18597;48.328;7.932;2022-07-10T20:28:57;2.23;;;2.03;;
32082;SDS011;18597;48.328;7.932;2022-07-10T20:31:23;3.70;;;2.60;;
32082;SDS011;18597;48.328;7.932;2022-07-10T20:33:50;2.00;;;1.80;;
32082;SDS011;18597;48.328;7.932;2022-07-10T20:36:15;3.47;;;2.60;;
32082;SDS011;18597;48.328;7.932;2022-07-10T20:39:01;2.70;;;2.00;;
32082;SDS011;18597;48.328;7.932;2022-07-10T20:41:27;6.40;;;2.33;;
32082;SDS011;18597;48.328;7.932;2022-07-10T20:43:53;2.50;;;2.00;;
32082;SDS011;18597;48.328;7.932;2022-07-10T20:46:19;3.20;;;2.03;;
32082;SDS011;18597;48.328;7.932;2022-07-10T20:48:45;3.27;;;2.97;;
32082;SDS011;18597;48.328;7.932;2022-07-10T20:51:11;3.80;;;2.10;;
32082;SDS011;18597;48.328;7.932;2022-07-10T20:53:37;1.83;;;1.73;;
32082;SDS011;18597;48.328;7.932;2022-07-10T20:56:03;1.97;;;1.90;;
32082;SDS011;18597;48.328;7.932;2022-07-10T20:58:29;3.07;;;1.80;;
32082;SDS011;18597;48.328;7.932;2022-07-10T21:00:55;2.40;;;2.30;;
32082;SDS011;18597;48.328;7.932;2022-07-10T21:03:21;2.57;;;2.03;;
32082;SDS011;18597;48.328;7.932;2022-07-10T21:05:46;2.27;;;2.07;;
32082;SDS011;18597;48.328;7.932;2022-07-10T21:08:12;3.23;;;2.37;;
32082;SDS011;18597;48.328;7.932;2022-07-10T21:10:38;2.27;;;2.17;;
32082;SDS011;18597;48.328;7.932;2022-07-10T21:13:09;3.60;;;3.37;;
32082;SDS011;18597;48.328;7.932;2022-07-10T21:15:36;2.63;;;2.43;;
32082;SDS011;18597;48.328;7.932;2022-07-10T21:18:04;3.03;;;2.17;;
32082;SDS011;18597;48.328;7.932;2022-07-10T21:20:30;3.80;;;2.23;;
32082;SDS011;18597;48.328;7.932;2022-07-10T21:22:56;2.17;;;2.07;;
32082;SDS011;18597;48.328;7.932;2022-07-10T21:25:23;3.97;;;2.30;;
32082;SDS011;18597;48.328;7.932;2022-07-10T21:27:49;1.90;;;1.80;;
32082;SDS011;18597;48.328;7.932;2022-07-10T21:30:17;2.80;;;2.60;;
32082;SDS011;18597;48.328;7.932;2022-07-10T21:32:44;2.93;;;2.50;;
32082;SDS011;18597;48.328;7.932;2022-07-10T21:35:11;3.03;;;2.27;;
32082;SDS011;18597;48.328;7.932;2022-07-10T21:37:38;2.13;;;1.83;;
32082;SDS011;18597;48.328;7.932;2022-07-10T21:40:05;2.67;;;2.37;;
32082;SDS011;18597;48.328;7.932;2022-07-10T21:42:32;2.23;;;2.10;;
32082;SDS011;18597;48.328;7.932;2022-07-10T21:44:58;2.53;;;2.53;;
32082;SDS011;18597;48.328;7.932;2022-07-10T21:47:24;2.43;;;2.20;;
32082;SDS011;18597;48.328;7.932;2022-07-10T21:49:50;4.00;;;2.60;;
32082;SDS011;18597;48.328;7.932;2022-07-10T21:52:16;2.77;;;2.50;;
32082;SDS011;18597;48.328;7.932;2022-07-10T21:54:43;2.43;;;2.23;;
32082;SDS011;18597;48.328;7.932;2022-07-10T21:57:09;7.50;;;2.73;;
32082;SDS011;18597;48.328;7.932;2022-07-10T21:59:35;2.90;;;2.47;;
32082;SDS011;18597;48.328;7.932;2022-07-10T22:02:01;2.53;;;2.43;;
32082;SDS011;18597;48.328;7.932;2022-07-10T22:04:27;7.47;;;3.37;;
32082;SDS011;18597;48.328;7.932;2022-07-10T22:06:53;3.80;;;2.97;;
32082;SDS011;18597;48.328;7.932;2022-07-10T22:09:19;3.07;;;2.97;;
32082;SDS011;18597;48.328;7.932;2022-07-10T22:11:46;2.80;;;2.50;;
32082;SDS011;18597;48.328;7.932;2022-07-10T22:14:13;2.53;;;2.33;;
32082;SDS011;18597;48.328;7.932;2022-07-10T22:16:38;3.03;;;2.83;;
32082;SDS011;18597;48.328;7.932;2022-07-10T22:19:04;6.30;;;3.27;;
32082;SDS011;18597;48.328;7.932;2022-07-10T22:21:30;7.13;;;2.60;;
32082;SDS011;18597;48.328;7.932;2022-07-10T22:23:57;5.00;;;2.70;;
32082;SDS011;18597;48.328;7.932;2022-07-10T22:26:23;2.13;;;2.13;;
32082;SDS011;18597;48.328;7.932;2022-07-10T22:28:49;2.80;;;2.70;;
32082;SDS011;18597;48.328;7.932;2022-07-10T22:31:15;4.93;;;2.73;;
32082;SDS011;18597;48.328;7.932;2022-07-10T22:33:42;3.03;;;2.70;;
32082;SDS011;18597;48.328;7.932;2022-07-10T22:36:09;6.00;;;2.53;;
32082;SDS011;18597;48.328;7.932;2022-07-10T22:38:36;2.40;;;2.30;;
32082;SDS011;18597;48.328;7.932;2022-07-10T22:41:03;2.70;;;2.50;;
32082;SDS011;18597;48.328;7.932;2022-07-10T22:43:29;2.40;;;2.40;;
32082;SDS011;18597;48.328;7.932;2022-07-10T22:45:55;2.43;;;2.23;;
32082;SDS011;18597;48.328;7.932;2022-07-10T22:48:21;2.50;;;2.50;;
32082;SDS011;18597;48.328;7.932;2022-07-10T22:50:48;7.10;;;2.50;;
32082;SDS011;18597;48.328;7.932;2022-07-10T22:53:14;4.30;;;2.90;;
32082;SDS011;18597;48.328;7.932;2022-07-10T22:55:41;3.13;;;2.70;;
32082;SDS011;18597;48.328;7.932;2022-07-10T22:58:07;4.57;;;3.00;;
32082;SDS011;18597;48.328;7.932;2022-07-10T23:00:33;3.47;;;3.10;;
32082;SDS011;18597;48.328;7.932;2022-07-10T23:03:01;3.83;;;3.50;;
32082;SDS011;18597;48.328;7.932;2022-07-10T23:05:27;3.27;;;2.97;;
32082;SDS011;18597;48.328;7.932;2022-07-10T23:07:54;3.20;;;3.00;;
32082;SDS011;18597;48.328;7.932;2022-07-10T23:10:20;6.83;;;2.47;;
32082;SDS011;18597;48.328;7.932;2022-07-10T23:12:47;3.80;;;2.70;;
32082;SDS011;18597;48.328;7.932;2022-07-10T23:15:13;3.40;;;3.10;;
32082;SDS011;18597;48.328;7.932;2022-07-10T23:17:39;3.30;;;3.00;;
32082;SDS011;18597;48.328;7.932;2022-07-10T23:20:05;2.97;;;2.77;;
32082;SDS011;18597;48.328;7.932;2022-07-10T23:22:32;5.60;;;3.00;;
32082;SDS011;18597;48.328;7.932;2022-07-10T23:24:57;5.23;;;3.80;;
32082;SDS011;18597;48.328;7.932;2022-07-10T23:27:24;2.70;;;2.60;;
32082;SDS011;18597;48.328;7.932;2022-07-10T23:29:51;3.03;;;2.93;;
32082;SDS011;18597;48.328;7.932;2022-07-10T23:32:18;2.97;;;2.77;;
32082;SDS011;18597;48.328;7.932;2022-07-10T23:34:45;3.23;;;2.23;;
32082;SDS011;18597;48.328;7.932;2022-07-10T23:37:12;3.43;;;3.00;;
32082;SDS011;18597;48.328;7.932;2022-07-10T23:39:39;3.27;;;2.80;;
32082;SDS011;18597;48.328;7.932;2022-07-10T23:42:05;3.73;;;3.43;;
32082;SDS011;18597;48.328;7.932;2022-07-10T23:44:32;3.90;;;2.83;;
32082;SDS011;18597;48.328;7.932;2022-07-10T23:46:58;4.00;;;3.27;;
32082;SDS011;18597;48.328;7.932;2022-07-10T23:49:25;3.37;;;3.07;;
32082;SDS011;18597;48.328;7.932;2022-07-10T23:52:10;3.33;;;3.07;;
32082;SDS011;18597;48.328;7.932;2022-07-10T23:54:37;3.10;;;3.00;;
32082;SDS011;18597;48.328;7.932;2022-07-10T23:57:07;3.10;;;2.87;;
32082;SDS011;18597;48.328;7.932;2022-07-10T23:59:34;2.77;;;2.57;;
